sensor_id;sensor_type;location;lat;lon;timestamp;P1;durP1;ratioP1;P2;durP2;ratioP2
47259;SDS011;32999;52.412;4.890;2022-07-29T00:02:02;3.38;;;1.13;;
47259;SDS011;32999;52.412;4.890;2022-07-29T00:07:05;3.15;;;1.10;;
47259;SDS011;32999;52.412;4.890;2022-07-29T00:12:07;3.80;;;1.17;;
47259;SDS011;32999;52.412;4.890;2022-07-29T00:17:09;3.40;;;1.20;;
47259;SDS011;32999;52.412;4.890;2022-07-29T00:22:12;4.35;;;1.10;;
47259;SDS011;32999;52.412;4.890;2022-07-29T00:27:14;4.07;;;1.20;;
47259;SDS011;32999;52.412;4.890;2022-07-29T00:32:15;3.60;;;1.45;;
47259;SDS011;32999;52.412;4.890;2022-07-29T00:37:18;4.03;;;1.23;;
47259;SDS011;32999;52.412;4.890;2022-07-29T00:42:20;5.28;;;1.30;;
47259;SDS011;32999;52.412;4.890;2022-07-29T00:47:22;2.20;;;1.27;;
47259;SDS011;32999;52.412;4.890;2022-07-29T00:52:24;3.05;;;1.10;;
47259;SDS011;32999;52.412;4.890;2022-07-29T00:57:26;5.47;;;1.73;;
47259;SDS011;32999;52.412;4.890;2022-07-29T01:02:28;2.97;;;1.05;;
47259;SDS011;32999;52.412;4.890;2022-07-29T01:07:31;4.70;;;1.38;;
47259;SDS011;32999;52.412;4.890;2022-07-29T01:12:35;4.88;;;1.45;;
47259;SDS011;32999;52.412;4.890;2022-07-29T01:17:40;3.97;;;0.80;;
47259;SDS011;32999;52.412;4.890;2022-07-29T01:23:10;6.45;;;1.40;;
47259;SDS011;32999;52.412;4.890;2022-07-29T01:33:55;3.88;;;1.23;;
47259;SDS011;32999;52.412;4.890;2022-07-29T01:39:02;2.75;;;1.27;;
47259;SDS011;32999;52.412;4.890;2022-07-29T01:44:13;2.72;;;1.27;;
47259;SDS011;32999;52.412;4.890;2022-07-29T01:49:21;3.00;;;1.15;;
47259;SDS011;32999;52.412;4.890;2022-07-29T01:54:29;4.55;;;1.40;;
47259;SDS011;32999;52.412;4.890;2022-07-29T01:59:34;1.60;;;1.00;;
47259;SDS011;32999;52.412;4.890;2022-07-29T02:04:38;5.55;;;1.63;;
47259;SDS011;32999;52.412;4.890;2022-07-29T02:09:42;2.43;;;1.33;;
47259;SDS011;32999;52.412;4.890;2022-07-29T02:14:48;3.15;;;1.48;;
47259;SDS011;32999;52.412;4.890;2022-07-29T02:19:54;3.38;;;0.90;;
47259;SDS011;32999;52.412;4.890;2022-07-29T02:24:58;2.92;;;1.40;;
47259;SDS011;32999;52.412;4.890;2022-07-29T02:30:04;4.68;;;1.25;;
47259;SDS011;32999;52.412;4.890;2022-07-29T02:35:13;3.58;;;1.55;;
47259;SDS011;32999;52.412;4.890;2022-07-29T02:45:19;4.15;;;1.65;;
47259;SDS011;32999;52.412;4.890;2022-07-29T02:50:23;4.15;;;2.38;;
47259;SDS011;32999;52.412;4.890;2022-07-29T02:55:34;3.78;;;1.48;;
47259;SDS011;32999;52.412;4.890;2022-07-29T03:00:41;3.33;;;1.63;;
47259;SDS011;32999;52.412;4.890;2022-07-29T03:05:43;3.97;;;1.25;;
47259;SDS011;32999;52.412;4.890;2022-07-29T03:10:45;3.83;;;1.70;;
47259;SDS011;32999;52.412;4.890;2022-07-29T03:15:49;3.75;;;1.75;;
47259;SDS011;32999;52.412;4.890;2022-07-29T03:20:51;3.35;;;1.48;;
47259;SDS011;32999;52.412;4.890;2022-07-29T03:25:54;4.18;;;1.30;;
47259;SDS011;32999;52.412;4.890;2022-07-29T03:30:57;2.53;;;1.55;;
47259;SDS011;32999;52.412;4.890;2022-07-29T03:35:58;5.32;;;2.00;;
47259;SDS011;32999;52.412;4.890;2022-07-29T03:41:03;2.30;;;1.67;;
47259;SDS011;32999;52.412;4.890;2022-07-29T03:46:10;3.83;;;1.70;;
47259;SDS011;32999;52.412;4.890;2022-07-29T03:51:19;4.30;;;1.33;;
47259;SDS011;32999;52.412;4.890;2022-07-29T03:56:25;5.60;;;1.60;;
47259;SDS011;32999;52.412;4.890;2022-07-29T04:01:30;3.60;;;1.50;;
47259;SDS011;32999;52.412;4.890;2022-07-29T04:06:38;4.60;;;1.80;;
47259;SDS011;32999;52.412;4.890;2022-07-29T04:11:41;5.65;;;1.45;;
47259;SDS011;32999;52.412;4.890;2022-07-29T04:16:44;4.88;;;1.80;;
47259;SDS011;32999;52.412;4.890;2022-07-29T04:21:46;5.28;;;1.75;;
47259;SDS011;32999;52.412;4.890;2022-07-29T04:26:48;5.20;;;2.30;;
47259;SDS011;32999;52.412;4.890;2022-07-29T04:31:52;4.50;;;1.80;;
47259;SDS011;32999;52.412;4.890;2022-07-29T04:36:53;2.90;;;1.58;;
47259;SDS011;32999;52.412;4.890;2022-07-29T04:41:55;4.72;;;1.83;;
47259;SDS011;32999;52.412;4.890;2022-07-29T04:46:58;3.38;;;1.70;;
47259;SDS011;32999;52.412;4.890;2022-07-29T04:52:00;3.70;;;1.30;;
47259;SDS011;32999;52.412;4.890;2022-07-29T04:57:02;2.05;;;1.40;;
47259;SDS011;32999;52.412;4.890;2022-07-29T05:02:05;6.38;;;1.50;;
47259;SDS011;32999;52.412;4.890;2022-07-29T05:07:06;4.50;;;1.55;;
47259;SDS011;32999;52.412;4.890;2022-07-29T05:12:08;4.93;;;1.80;;
47259;SDS011;32999;52.412;4.890;2022-07-29T05:17:12;3.28;;;1.73;;
47259;SDS011;32999;52.412;4.890;2022-07-29T05:22:13;2.88;;;1.63;;
47259;SDS011;32999;52.412;4.890;2022-07-29T05:27:15;4.22;;;1.73;;
47259;SDS011;32999;52.412;4.890;2022-07-29T05:32:18;5.55;;;1.23;;
47259;SDS011;32999;52.412;4.890;2022-07-29T05:37:20;2.40;;;1.52;;
47259;SDS011;32999;52.412;4.890;2022-07-29T05:42:21;6.82;;;1.42;;
47259;SDS011;32999;52.412;4.890;2022-07-29T05:47:24;3.75;;;1.48;;
47259;SDS011;32999;52.412;4.890;2022-07-29T05:52:26;4.22;;;1.65;;
47259;SDS011;32999;52.412;4.890;2022-07-29T05:57:28;3.90;;;1.70;;
47259;SDS011;32999;52.412;4.890;2022-07-29T06:02:31;3.58;;;1.42;;
47259;SDS011;32999;52.412;4.890;2022-07-29T06:07:33;4.72;;;1.30;;
47259;SDS011;32999;52.412;4.890;2022-07-29T06:12:34;3.28;;;1.60;;
47259;SDS011;32999;52.412;4.890;2022-07-29T06:17:37;3.35;;;1.50;;
47259;SDS011;32999;52.412;4.890;2022-07-29T06:22:39;6.28;;;1.60;;
47259;SDS011;32999;52.412;4.890;2022-07-29T06:27:40;3.67;;;1.42;;
47259;SDS011;32999;52.412;4.890;2022-07-29T06:32:43;3.90;;;1.70;;
47259;SDS011;32999;52.412;4.890;2022-07-29T06:37:45;4.78;;;1.50;;
47259;SDS011;32999;52.412;4.890;2022-07-29T06:42:47;6.68;;;1.67;;
47259;SDS011;32999;52.412;4.890;2022-07-29T06:47:50;4.43;;;1.70;;
47259;SDS011;32999;52.412;4.890;2022-07-29T06:52:51;4.78;;;1.45;;
47259;SDS011;32999;52.412;4.890;2022-07-29T06:57:53;5.32;;;2.08;;
47259;SDS011;32999;52.412;4.890;2022-07-29T07:02:56;3.65;;;1.65;;
47259;SDS011;32999;52.412;4.890;2022-07-29T07:07:57;3.47;;;1.63;;
47259;SDS011;32999;52.412;4.890;2022-07-29T07:12:59;4.40;;;1.50;;
47259;SDS011;32999;52.412;4.890;2022-07-29T07:18:03;4.32;;;2.00;;
47259;SDS011;32999;52.412;4.890;2022-07-29T07:23:05;4.10;;;1.50;;
47259;SDS011;32999;52.412;4.890;2022-07-29T07:28:07;4.93;;;1.73;;
47259;SDS011;32999;52.412;4.890;2022-07-29T07:33:10;6.70;;;1.45;;
47259;SDS011;32999;52.412;4.890;2022-07-29T07:38:12;4.80;;;1.60;;
47259;SDS011;32999;52.412;4.890;2022-07-29T07:43:14;4.85;;;1.65;;
47259;SDS011;32999;52.412;4.890;2022-07-29T07:48:17;6.40;;;2.50;;
47259;SDS011;32999;52.412;4.890;2022-07-29T07:53:18;8.30;;;2.63;;
47259;SDS011;32999;52.412;4.890;2022-07-29T07:58:20;7.35;;;2.45;;
47259;SDS011;32999;52.412;4.890;2022-07-29T08:03:23;3.55;;;1.63;;
47259;SDS011;32999;52.412;4.890;2022-07-29T08:08:25;5.57;;;2.30;;
47259;SDS011;32999;52.412;4.890;2022-07-29T08:13:26;5.50;;;1.98;;
47259;SDS011;32999;52.412;4.890;2022-07-29T08:18:31;3.23;;;1.63;;
47259;SDS011;32999;52.412;4.890;2022-07-29T08:23:33;4.57;;;1.80;;
47259;SDS011;32999;52.412;4.890;2022-07-29T08:28:39;4.30;;;1.90;;
47259;SDS011;32999;52.412;4.890;2022-07-29T08:33:43;6.47;;;1.90;;
47259;SDS011;32999;52.412;4.890;2022-07-29T08:38:44;2.72;;;1.83;;
47259;SDS011;32999;52.412;4.890;2022-07-29T08:43:46;5.07;;;2.00;;
47259;SDS011;32999;52.412;4.890;2022-07-29T08:48:49;3.90;;;1.67;;
47259;SDS011;32999;52.412;4.890;2022-07-29T08:53:51;3.90;;;1.53;;
47259;SDS011;32999;52.412;4.890;2022-07-29T08:58:54;6.05;;;1.60;;
47259;SDS011;32999;52.412;4.890;2022-07-29T09:04:00;4.30;;;2.05;;
47259;SDS011;32999;52.412;4.890;2022-07-29T09:09:04;6.18;;;1.98;;
47259;SDS011;32999;52.412;4.890;2022-07-29T09:14:06;4.03;;;1.80;;
47259;SDS011;32999;52.412;4.890;2022-07-29T09:19:11;4.88;;;1.85;;
47259;SDS011;32999;52.412;4.890;2022-07-29T09:24:20;4.78;;;1.95;;
47259;SDS011;32999;52.412;4.890;2022-07-29T09:29:23;5.25;;;1.73;;
47259;SDS011;32999;52.412;4.890;2022-07-29T09:34:28;4.85;;;2.25;;
47259;SDS011;32999;52.412;4.890;2022-07-29T09:39:31;6.53;;;1.90;;
47259;SDS011;32999;52.412;4.890;2022-07-29T09:44:43;3.83;;;2.03;;
47259;SDS011;32999;52.412;4.890;2022-07-29T09:49:51;3.78;;;1.50;;
47259;SDS011;32999;52.412;4.890;2022-07-29T09:55:03;5.95;;;2.25;;
47259;SDS011;32999;52.412;4.890;2022-07-29T10:00:06;4.43;;;1.67;;
47259;SDS011;32999;52.412;4.890;2022-07-29T10:05:18;3.45;;;2.00;;
47259;SDS011;32999;52.412;4.890;2022-07-29T10:10:21;6.65;;;1.90;;
47259;SDS011;32999;52.412;4.890;2022-07-29T10:15:25;5.55;;;2.42;;
47259;SDS011;32999;52.412;4.890;2022-07-29T10:20:29;7.85;;;2.33;;
47259;SDS011;32999;52.412;4.890;2022-07-29T10:25:31;6.70;;;2.85;;
47259;SDS011;32999;52.412;4.890;2022-07-29T10:30:33;6.43;;;2.85;;
47259;SDS011;32999;52.412;4.890;2022-07-29T10:35:43;6.55;;;2.22;;
47259;SDS011;32999;52.412;4.890;2022-07-29T10:40:54;4.85;;;1.85;;
47259;SDS011;32999;52.412;4.890;2022-07-29T10:46:20;7.65;;;2.00;;
47259;SDS011;32999;52.412;4.890;2022-07-29T10:51:24;4.00;;;2.00;;
47259;SDS011;32999;52.412;4.890;2022-07-29T10:56:26;5.25;;;1.92;;
47259;SDS011;32999;52.412;4.890;2022-07-29T11:01:30;3.65;;;2.08;;
47259;SDS011;32999;52.412;4.890;2022-07-29T11:12:20;5.15;;;2.00;;
47259;SDS011;32999;52.412;4.890;2022-07-29T11:18:08;4.07;;;2.15;;
47259;SDS011;32999;52.412;4.890;2022-07-29T11:23:23;3.30;;;2.03;;
47259;SDS011;32999;52.412;4.890;2022-07-29T11:28:27;6.25;;;1.85;;
47259;SDS011;32999;52.412;4.890;2022-07-29T11:33:31;6.70;;;1.83;;
47259;SDS011;32999;52.412;4.890;2022-07-29T11:38:34;5.93;;;2.40;;
47259;SDS011;32999;52.412;4.890;2022-07-29T11:43:49;4.25;;;2.22;;
47259;SDS011;32999;52.412;4.890;2022-07-29T11:48:52;5.00;;;2.45;;
47259;SDS011;32999;52.412;4.890;2022-07-29T11:53:54;5.82;;;1.77;;
47259;SDS011;32999;52.412;4.890;2022-07-29T11:59:03;7.07;;;1.90;;
47259;SDS011;32999;52.412;4.890;2022-07-29T12:04:06;5.97;;;2.58;;
47259;SDS011;32999;52.412;4.890;2022-07-29T12:09:13;7.10;;;3.05;;
47259;SDS011;32999;52.412;4.890;2022-07-29T12:14:26;6.75;;;3.00;;
47259;SDS011;32999;52.412;4.890;2022-07-29T12:19:31;5.05;;;2.50;;
47259;SDS011;32999;52.412;4.890;2022-07-29T12:24:44;4.50;;;2.47;;
47259;SDS011;32999;52.412;4.890;2022-07-29T12:29:55;6.40;;;2.10;;
47259;SDS011;32999;52.412;4.890;2022-07-29T12:34:57;7.32;;;3.10;;
47259;SDS011;32999;52.412;4.890;2022-07-29T12:40:20;7.70;;;2.50;;
47259;SDS011;32999;52.412;4.890;2022-07-29T12:45:29;7.07;;;3.00;;
47259;SDS011;32999;52.412;4.890;2022-07-29T12:50:32;7.10;;;3.10;;
47259;SDS011;32999;52.412;4.890;2022-07-29T12:55:42;6.18;;;3.00;;
47259;SDS011;32999;52.412;4.890;2022-07-29T13:01:02;7.63;;;3.10;;
47259;SDS011;32999;52.412;4.890;2022-07-29T13:06:05;10.27;;;3.15;;
47259;SDS011;32999;52.412;4.890;2022-07-29T13:16:36;4.80;;;2.50;;
47259;SDS011;32999;52.412;4.890;2022-07-29T13:22:09;7.05;;;3.08;;
47259;SDS011;32999;52.412;4.890;2022-07-29T13:27:13;7.50;;;2.88;;
47259;SDS011;32999;52.412;4.890;2022-07-29T13:32:16;7.90;;;3.08;;
47259;SDS011;32999;52.412;4.890;2022-07-29T13:37:20;10.35;;;3.67;;
47259;SDS011;32999;52.412;4.890;2022-07-29T13:42:22;5.85;;;3.13;;
47259;SDS011;32999;52.412;4.890;2022-07-29T13:47:26;5.43;;;2.73;;
47259;SDS011;32999;52.412;4.890;2022-07-29T13:52:28;5.95;;;2.90;;
47259;SDS011;32999;52.412;4.890;2022-07-29T13:57:30;7.57;;;2.83;;
47259;SDS011;32999;52.412;4.890;2022-07-29T14:02:33;4.72;;;2.63;;
47259;SDS011;32999;52.412;4.890;2022-07-29T14:07:35;6.65;;;3.38;;
47259;SDS011;32999;52.412;4.890;2022-07-29T14:12:38;7.95;;;2.95;;
47259;SDS011;32999;52.412;4.890;2022-07-29T14:17:43;7.43;;;2.42;;
47259;SDS011;32999;52.412;4.890;2022-07-29T14:22:45;5.88;;;2.17;;
47259;SDS011;32999;52.412;4.890;2022-07-29T14:27:47;4.95;;;2.80;;
47259;SDS011;32999;52.412;4.890;2022-07-29T14:32:50;7.10;;;2.13;;
47259;SDS011;32999;52.412;4.890;2022-07-29T14:37:52;9.35;;;2.28;;
47259;SDS011;32999;52.412;4.890;2022-07-29T14:42:54;8.27;;;2.42;;
47259;SDS011;32999;52.412;4.890;2022-07-29T14:47:57;7.45;;;2.25;;
47259;SDS011;32999;52.412;4.890;2022-07-29T14:52:59;8.98;;;2.60;;
47259;SDS011;32999;52.412;4.890;2022-07-29T14:58:03;5.82;;;2.25;;
47259;SDS011;32999;52.412;4.890;2022-07-29T15:03:07;7.13;;;2.30;;
47259;SDS011;32999;52.412;4.890;2022-07-29T15:08:10;10.77;;;2.28;;
47259;SDS011;32999;52.412;4.890;2022-07-29T15:13:12;5.30;;;2.42;;
47259;SDS011;32999;52.412;4.890;2022-07-29T15:18:15;6.35;;;2.03;;
47259;SDS011;32999;52.412;4.890;2022-07-29T15:23:18;7.13;;;2.20;;
47259;SDS011;32999;52.412;4.890;2022-07-29T15:28:19;7.32;;;2.30;;
47259;SDS011;32999;52.412;4.890;2022-07-29T15:33:22;6.55;;;2.78;;
47259;SDS011;32999;52.412;4.890;2022-07-29T15:38:26;10.15;;;2.95;;
47259;SDS011;32999;52.412;4.890;2022-07-29T15:43:30;4.55;;;2.40;;
47259;SDS011;32999;52.412;4.890;2022-07-29T15:48:39;2.88;;;2.00;;
47259;SDS011;32999;52.412;4.890;2022-07-29T15:53:52;5.07;;;2.50;;
47259;SDS011;32999;52.412;4.890;2022-07-29T15:58:56;6.50;;;2.17;;
47259;SDS011;32999;52.412;4.890;2022-07-29T16:04:08;12.73;;;6.93;;
47259;SDS011;32999;52.412;4.890;2022-07-29T16:09:10;11.07;;;4.18;;
47259;SDS011;32999;52.412;4.890;2022-07-29T16:14:33;6.68;;;1.67;;
47259;SDS011;32999;52.412;4.890;2022-07-29T16:19:49;13.43;;;3.45;;
47259;SDS011;32999;52.412;4.890;2022-07-29T16:24:53;19.20;;;3.58;;
47259;SDS011;32999;52.412;4.890;2022-07-29T16:29:54;5.60;;;1.88;;
47259;SDS011;32999;52.412;4.890;2022-07-29T16:35:00;6.07;;;2.60;;
47259;SDS011;32999;52.412;4.890;2022-07-29T16:40:09;7.60;;;2.50;;
47259;SDS011;32999;52.412;4.890;2022-07-29T16:45:14;6.50;;;2.35;;
47259;SDS011;32999;52.412;4.890;2022-07-29T16:50:18;19.08;;;3.08;;
47259;SDS011;32999;52.412;4.890;2022-07-29T16:55:20;7.18;;;2.40;;
47259;SDS011;32999;52.412;4.890;2022-07-29T17:00:22;12.10;;;5.80;;
47259;SDS011;32999;52.412;4.890;2022-07-29T17:05:25;8.95;;;2.22;;
47259;SDS011;32999;52.412;4.890;2022-07-29T17:10:27;8.95;;;2.17;;
47259;SDS011;32999;52.412;4.890;2022-07-29T17:15:29;9.48;;;2.78;;
47259;SDS011;32999;52.412;4.890;2022-07-29T17:20:32;7.15;;;2.58;;
47259;SDS011;32999;52.412;4.890;2022-07-29T17:25:35;10.43;;;2.72;;
47259;SDS011;32999;52.412;4.890;2022-07-29T17:30:37;10.65;;;2.83;;
47259;SDS011;32999;52.412;4.890;2022-07-29T17:35:40;6.80;;;2.70;;
47259;SDS011;32999;52.412;4.890;2022-07-29T17:41:01;6.43;;;2.22;;
47259;SDS011;32999;52.412;4.890;2022-07-29T17:51:10;6.45;;;2.13;;
47259;SDS011;32999;52.412;4.890;2022-07-29T17:56:12;12.00;;;2.95;;
47259;SDS011;32999;52.412;4.890;2022-07-29T18:01:16;5.85;;;2.10;;
47259;SDS011;32999;52.412;4.890;2022-07-29T18:06:19;9.73;;;2.05;;
47259;SDS011;32999;52.412;4.890;2022-07-29T18:11:21;9.70;;;2.27;;
47259;SDS011;32999;52.412;4.890;2022-07-29T18:16:23;8.32;;;2.45;;
47259;SDS011;32999;52.412;4.890;2022-07-29T18:21:26;13.50;;;2.83;;
47259;SDS011;32999;52.412;4.890;2022-07-29T18:26:28;6.95;;;2.13;;
47259;SDS011;32999;52.412;4.890;2022-07-29T18:31:30;10.30;;;2.65;;
47259;SDS011;32999;52.412;4.890;2022-07-29T18:36:33;7.50;;;2.40;;
47259;SDS011;32999;52.412;4.890;2022-07-29T18:41:34;6.90;;;2.53;;
47259;SDS011;32999;52.412;4.890;2022-07-29T18:46:37;11.47;;;2.93;;
47259;SDS011;32999;52.412;4.890;2022-07-29T18:51:40;6.43;;;2.78;;
47259;SDS011;32999;52.412;4.890;2022-07-29T18:56:42;5.20;;;2.47;;
47259;SDS011;32999;52.412;4.890;2022-07-29T19:01:44;6.60;;;2.75;;
47259;SDS011;32999;52.412;4.890;2022-07-29T19:06:58;10.15;;;3.30;;
47259;SDS011;32999;52.412;4.890;2022-07-29T19:12:05;12.13;;;3.53;;
47259;SDS011;32999;52.412;4.890;2022-07-29T19:17:14;11.50;;;3.25;;
47259;SDS011;32999;52.412;4.890;2022-07-29T19:22:18;8.07;;;3.25;;
47259;SDS011;32999;52.412;4.890;2022-07-29T19:27:20;8.32;;;3.53;;
47259;SDS011;32999;52.412;4.890;2022-07-29T19:32:22;10.77;;;2.92;;
47259;SDS011;32999;52.412;4.890;2022-07-29T19:37:25;10.65;;;3.15;;
47259;SDS011;32999;52.412;4.890;2022-07-29T19:42:27;7.13;;;2.58;;
47259;SDS011;32999;52.412;4.890;2022-07-29T19:47:28;14.63;;;3.55;;
47259;SDS011;32999;52.412;4.890;2022-07-29T19:52:31;8.88;;;3.45;;
47259;SDS011;32999;52.412;4.890;2022-07-29T19:57:33;7.25;;;2.85;;
47259;SDS011;32999;52.412;4.890;2022-07-29T20:02:35;5.22;;;3.05;;
47259;SDS011;32999;52.412;4.890;2022-07-29T20:07:38;6.43;;;2.50;;
47259;SDS011;32999;52.412;4.890;2022-07-29T20:12:40;4.85;;;2.58;;
47259;SDS011;32999;52.412;4.890;2022-07-29T20:17:41;9.30;;;3.03;;
47259;SDS011;32999;52.412;4.890;2022-07-29T20:22:44;9.75;;;2.70;;
47259;SDS011;32999;52.412;4.890;2022-07-29T20:27:46;12.77;;;2.72;;
47259;SDS011;32999;52.412;4.890;2022-07-29T20:32:51;7.80;;;3.15;;
47259;SDS011;32999;52.412;4.890;2022-07-29T20:37:54;8.63;;;2.65;;
47259;SDS011;32999;52.412;4.890;2022-07-29T20:42:55;10.77;;;3.97;;
47259;SDS011;32999;52.412;4.890;2022-07-29T20:47:57;12.00;;;3.70;;
47259;SDS011;32999;52.412;4.890;2022-07-29T20:53:00;6.95;;;3.65;;
47259;SDS011;32999;52.412;4.890;2022-07-29T20:58:02;11.60;;;3.77;;
47259;SDS011;32999;52.412;4.890;2022-07-29T21:03:04;6.57;;;3.35;;
47259;SDS011;32999;52.412;4.890;2022-07-29T21:08:07;7.30;;;2.47;;
47259;SDS011;32999;52.412;4.890;2022-07-29T21:13:10;6.53;;;2.65;;
47259;SDS011;32999;52.412;4.890;2022-07-29T21:18:13;10.43;;;3.13;;
47259;SDS011;32999;52.412;4.890;2022-07-29T21:23:27;8.27;;;3.45;;
47259;SDS011;32999;52.412;4.890;2022-07-29T21:28:29;7.07;;;2.85;;
47259;SDS011;32999;52.412;4.890;2022-07-29T21:33:35;14.07;;;4.07;;
47259;SDS011;32999;52.412;4.890;2022-07-29T21:38:40;9.73;;;3.38;;
47259;SDS011;32999;52.412;4.890;2022-07-29T21:43:42;14.10;;;3.45;;
47259;SDS011;32999;52.412;4.890;2022-07-29T21:48:47;9.15;;;3.33;;
47259;SDS011;32999;52.412;4.890;2022-07-29T21:58:52;9.57;;;3.22;;
47259;SDS011;32999;52.412;4.890;2022-07-29T22:03:53;6.47;;;2.95;;
47259;SDS011;32999;52.412;4.890;2022-07-29T22:08:57;13.00;;;4.35;;
47259;SDS011;32999;52.412;4.890;2022-07-29T22:13:59;7.32;;;3.28;;
47259;SDS011;32999;52.412;4.890;2022-07-29T22:19:07;9.00;;;3.90;;
47259;SDS011;32999;52.412;4.890;2022-07-29T22:24:10;7.47;;;3.65;;
47259;SDS011;32999;52.412;4.890;2022-07-29T22:29:11;9.23;;;3.72;;
47259;SDS011;32999;52.412;4.890;2022-07-29T22:34:16;12.93;;;4.53;;
47259;SDS011;32999;52.412;4.890;2022-07-29T22:39:19;10.70;;;5.60;;
47259;SDS011;32999;52.412;4.890;2022-07-29T22:44:21;9.57;;;4.90;;
47259;SDS011;32999;52.412;4.890;2022-07-29T22:49:23;9.82;;;4.10;;
47259;SDS011;32999;52.412;4.890;2022-07-29T22:54:27;14.00;;;4.80;;
47259;SDS011;32999;52.412;4.890;2022-07-29T22:59:28;9.23;;;4.68;;
47259;SDS011;32999;52.412;4.890;2022-07-29T23:04:30;10.18;;;4.53;;
47259;SDS011;32999;52.412;4.890;2022-07-29T23:09:33;9.77;;;3.92;;
47259;SDS011;32999;52.412;4.890;2022-07-29T23:14:35;7.82;;;3.45;;
47259;SDS011;32999;52.412;4.890;2022-07-29T23:19:37;10.30;;;3.80;;
47259;SDS011;32999;52.412;4.890;2022-07-29T23:24:40;13.70;;;4.55;;
47259;SDS011;32999;52.412;4.890;2022-07-29T23:29:41;11.93;;;4.18;;
47259;SDS011;32999;52.412;4.890;2022-07-29T23:34:43;7.88;;;5.05;;
47259;SDS011;32999;52.412;4.890;2022-07-29T23:39:46;12.43;;;4.75;;
47259;SDS011;32999;52.412;4.890;2022-07-29T23:44:48;10.75;;;4.63;;
47259;SDS011;32999;52.412;4.890;2022-07-29T23:49:53;9.10;;;4.78;;
47259;SDS011;32999;52.412;4.890;2022-07-29T23:54:56;8.90;;;4.72;;
47259;SDS011;32999;52.412;4.890;2022-07-29T23:59:57;10.93;;;5.15;;
